createdAt,value
2019-06-08T00:00:08.269Z,100.00
2019-06-08T00:02:36.976Z,100.00
2019-06-08T00:05:07.023Z,100.00
2019-06-08T00:07:35.634Z,100.00
2019-06-08T00:10:07.521Z,100.00
2019-06-08T00:12:36.090Z,99.30
2019-06-08T00:15:06.263Z,100.00
2019-06-08T00:17:38.976Z,100.00
2019-06-08T00:20:07.694Z,100.00
2019-06-08T00:22:36.363Z,100.00
2019-06-08T00:25:05.909Z,100.00
2019-06-08T00:27:34.483Z,100.00
2019-06-08T00:30:04.083Z,100.00
2019-06-08T00:32:32.824Z,100.00
2019-06-08T00:35:01.388Z,100.00
2019-06-08T00:37:29.998Z,100.00
2019-06-08T00:39:58.623Z,100.00
2019-06-08T00:42:27.327Z,100.00
2019-06-08T00:44:55.959Z,100.00
2019-06-08T00:47:24.802Z,100.00
2019-06-08T00:49:53.376Z,100.00
2019-06-08T00:52:23.126Z,100.00
2019-06-08T00:54:51.708Z,100.00
2019-06-08T00:57:21.722Z,100.00
2019-06-08T00:59:50.343Z,100.00
2019-06-08T01:02:20.154Z,100.00
2019-06-08T01:04:48.874Z,100.00
2019-06-08T01:07:17.921Z,100.00
2019-06-08T01:09:46.622Z,100.00
2019-06-08T01:12:15.196Z,100.00
2019-06-08T01:14:43.797Z,100.00
2019-06-08T01:17:12.437Z,100.00
2019-06-08T01:19:41.089Z,100.00
2019-06-08T01:22:09.745Z,100.00
2019-06-08T01:24:38.315Z,100.00
2019-06-08T01:27:06.956Z,100.00
2019-06-08T01:29:36.763Z,100.00
2019-06-08T01:32:05.411Z,100.00
2019-06-08T01:34:33.973Z,100.00
2019-06-08T01:37:02.659Z,100.00
2019-06-08T01:39:32.425Z,100.00
2019-06-08T01:42:01.135Z,100.00
2019-06-08T01:44:30.120Z,100.00
2019-06-08T01:46:58.751Z,100.00
2019-06-08T01:49:28.402Z,100.00
2019-06-08T01:51:57.162Z,100.00
2019-06-08T01:54:26.862Z,100.00
2019-06-08T01:56:55.536Z,100.00
2019-06-08T01:59:25.222Z,100.00
2019-06-08T02:01:53.838Z,100.00
2019-06-08T02:04:22.397Z,100.00
2019-06-08T02:06:51.075Z,100.00
2019-06-08T02:09:19.717Z,100.00
2019-06-08T02:11:48.216Z,100.00
2019-06-08T02:14:16.901Z,100.00
2019-06-08T02:16:45.534Z,100.00
2019-06-08T02:19:14.173Z,100.00
2019-06-08T02:21:42.842Z,100.00
2019-06-08T02:24:11.440Z,100.00
2019-06-08T02:26:40.005Z,100.00
2019-06-08T02:29:08.711Z,100.00
2019-06-08T02:31:38.328Z,100.00
2019-06-08T02:34:06.998Z,100.00
2019-06-08T02:36:37.642Z,100.00
2019-06-08T02:39:07.851Z,100.00
2019-06-08T02:41:37.600Z,100.00
2019-06-08T02:44:06.537Z,100.00
2019-06-08T02:46:35.992Z,100.00
2019-06-08T02:49:05.644Z,100.00
2019-06-08T02:51:36.410Z,100.00
2019-06-08T02:54:05.399Z,100.00
2019-06-08T02:56:36.844Z,100.00
2019-06-08T02:59:06.460Z,100.00
2019-06-08T03:01:35.983Z,100.00
2019-06-08T03:04:05.412Z,100.00
2019-06-08T03:06:36.806Z,100.00
2019-06-08T03:09:07.168Z,100.00
2019-06-08T03:11:37.004Z,100.00
2019-06-08T03:14:05.733Z,100.00
2019-06-08T03:16:35.874Z,100.00
2019-06-08T03:19:20.990Z,100.00
2019-06-08T03:21:36.185Z,100.00
2019-06-08T03:24:05.431Z,100.00
2019-06-08T03:26:34.335Z,96.47
2019-06-08T03:29:03.099Z,94.11
2019-06-08T03:31:34.587Z,88.41
2019-06-08T03:34:01.931Z,85.15
2019-06-08T03:36:30.609Z,82.81
2019-06-08T03:38:59.181Z,78.61
2019-06-08T03:41:27.719Z,76.98
2019-06-08T03:43:56.753Z,74.66
2019-06-08T03:46:25.440Z,71.91
2019-06-08T03:48:54.102Z,69.75
2019-06-08T03:51:22.682Z,68.80
2019-06-08T03:53:51.243Z,67.56
2019-06-08T03:56:19.924Z,65.73
2019-06-08T03:58:48.548Z,64.38
2019-06-08T04:01:17.483Z,62.84
2019-06-08T04:03:46.460Z,61.25
2019-06-08T04:06:15.076Z,60.59
2019-06-08T04:08:45.332Z,59.45
2019-06-08T04:11:13.946Z,57.92
2019-06-08T04:13:44.367Z,56.68
2019-06-08T04:16:12.848Z,54.95
2019-06-08T04:18:42.106Z,53.81
2019-06-08T04:21:10.827Z,54.90
2019-06-08T04:23:40.606Z,53.74
2019-06-08T04:26:09.675Z,51.70
2019-06-08T04:28:38.423Z,50.23
2019-06-08T04:31:07.013Z,49.86
2019-06-08T04:33:35.615Z,49.13
2019-06-08T04:36:04.239Z,48.85
2019-06-08T04:38:32.899Z,48.50
2019-06-08T04:41:01.571Z,47.80
2019-06-08T04:43:30.054Z,47.41
2019-06-08T04:45:58.614Z,46.37
2019-06-08T04:48:27.218Z,48.10
2019-06-08T04:50:55.858Z,47.41
2019-06-08T04:53:24.406Z,46.95
2019-06-08T04:55:53.081Z,47.57
2019-06-08T04:58:21.725Z,46.35
2019-06-08T05:00:50.998Z,44.15
2019-06-08T05:03:19.754Z,42.58
2019-06-08T05:05:50.118Z,42.34
2019-06-08T05:08:18.823Z,41.10
2019-06-08T05:10:47.621Z,41.28
2019-06-08T05:13:16.565Z,39.27
2019-06-08T05:15:45.520Z,38.17
2019-06-08T05:18:14.149Z,37.69
2019-06-08T05:20:45.304Z,37.19
2019-06-08T05:23:12.989Z,36.38
2019-06-08T05:25:41.646Z,36.24
2019-06-08T05:28:10.277Z,35.99
2019-06-08T05:30:39.341Z,35.50
2019-06-08T05:33:07.918Z,37.95
2019-06-08T05:35:36.536Z,36.50
2019-06-08T05:38:06.011Z,36.80
2019-06-08T05:40:34.725Z,36.34
2019-06-08T05:43:03.411Z,35.54
2019-06-08T05:45:31.981Z,38.58
2019-06-08T05:48:00.553Z,38.63
2019-06-08T05:50:29.180Z,37.92
2019-06-08T05:52:57.843Z,36.77
2019-06-08T05:55:26.407Z,37.35
2019-06-08T05:57:54.972Z,37.74
2019-06-08T06:00:23.737Z,35.96
2019-06-08T06:02:52.427Z,35.97
2019-06-08T06:05:21.042Z,34.25
2019-06-08T06:07:51.127Z,33.42
2019-06-08T06:10:19.830Z,33.03
2019-06-08T06:12:49.078Z,34.39
2019-06-08T06:15:18.532Z,34.06
2019-06-08T06:17:48.424Z,31.88
2019-06-08T06:20:17.542Z,33.03
2019-06-08T06:22:47.644Z,31.54
2019-06-08T06:25:16.378Z,31.14
2019-06-08T06:27:45.534Z,32.18
2019-06-08T06:30:16.157Z,32.11
2019-06-08T06:32:45.994Z,33.03
2019-06-08T06:35:16.387Z,33.38
2019-06-08T06:37:45.931Z,34.61
2019-06-08T06:40:14.660Z,34.98
2019-06-08T06:42:43.844Z,33.70
2019-06-08T06:45:12.633Z,33.76
2019-06-08T06:47:42.201Z,33.49
2019-06-08T06:50:11.135Z,33.28
2019-06-08T06:52:39.704Z,33.56
2019-06-08T06:55:08.827Z,31.93
2019-06-08T06:57:37.434Z,31.40
2019-06-08T07:00:08.640Z,33.83
2019-06-08T07:02:37.275Z,32.55
2019-06-08T07:05:06.945Z,31.57
2019-06-08T07:07:35.977Z,30.49
2019-06-08T07:10:06.900Z,30.07
2019-06-08T07:12:35.515Z,29.35
2019-06-08T07:15:06.067Z,28.73
2019-06-08T07:17:34.626Z,29.13
2019-06-08T07:20:03.230Z,29.27
2019-06-08T07:22:31.727Z,29.05
2019-06-08T07:25:00.359Z,30.71
2019-06-08T07:27:28.967Z,33.18
2019-06-08T07:29:58.951Z,34.81
2019-06-08T07:32:27.581Z,34.87
2019-06-08T07:34:56.175Z,34.14
2019-06-08T07:37:24.736Z,33.13
2019-06-08T07:39:53.683Z,33.22
2019-06-08T07:42:22.337Z,32.96
2019-06-08T07:44:50.903Z,32.89
2019-06-08T07:47:19.465Z,31.76
2019-06-08T07:49:49.282Z,32.29
2019-06-08T07:52:17.951Z,33.32
2019-06-08T07:54:46.531Z,32.28
2019-06-08T07:57:15.125Z,32.43
2019-06-08T07:59:43.754Z,33.03
2019-06-08T08:02:12.393Z,33.49
2019-06-08T08:04:40.975Z,33.41
2019-06-08T08:07:09.539Z,32.29
2019-06-08T08:09:38.159Z,31.43
2019-06-08T08:12:06.751Z,32.16
2019-06-08T08:14:35.381Z,31.63
2019-06-08T08:17:04.026Z,34.26
2019-06-08T08:19:32.619Z,32.34
2019-06-08T08:22:18.522Z,31.75
2019-06-08T08:24:31.591Z,32.13
2019-06-08T08:27:03.219Z,34.15
2019-06-08T08:29:31.448Z,33.52
2019-06-08T08:32:01.839Z,29.42
2019-06-08T08:34:30.727Z,29.48
2019-06-08T08:37:05.837Z,30.11
2019-06-08T08:39:29.601Z,28.69
2019-06-08T08:42:04.396Z,28.93
2019-06-08T08:44:28.614Z,28.97
2019-06-08T08:47:00.801Z,29.00
2019-06-08T08:49:28.060Z,28.42
2019-06-08T08:51:59.041Z,28.51
2019-06-08T08:54:27.510Z,27.85
2019-06-08T08:57:02.912Z,26.32
2019-06-08T08:59:28.110Z,25.68
2019-06-08T09:01:59.817Z,26.19
2019-06-08T09:04:27.743Z,26.02
2019-06-08T09:07:02.372Z,25.92
2019-06-08T09:09:28.846Z,26.85
2019-06-08T09:12:02.224Z,28.20
2019-06-08T09:14:28.104Z,29.39
2019-06-08T09:16:59.697Z,31.13
2019-06-08T09:19:28.099Z,30.50
2019-06-08T09:22:00.342Z,30.64
2019-06-08T09:24:28.629Z,32.20
2019-06-08T09:27:00.826Z,33.75
2019-06-08T09:29:28.876Z,33.86
2019-06-08T09:31:59.050Z,34.59
2019-06-08T09:34:28.338Z,34.60
2019-06-08T09:37:00.160Z,33.99
2019-06-08T09:39:28.662Z,33.66
2019-06-08T09:42:00.419Z,35.36
2019-06-08T09:44:28.230Z,35.39
2019-06-08T09:47:02.782Z,34.62
2019-06-08T09:49:28.026Z,33.94
2019-06-08T09:52:00.338Z,34.18
2019-06-08T09:54:28.271Z,33.40
2019-06-08T09:57:00.913Z,33.79
2019-06-08T09:59:28.496Z,34.95
2019-06-08T10:02:05.081Z,34.72
2019-06-08T10:04:29.097Z,35.47
2019-06-08T10:07:00.161Z,33.00
2019-06-08T10:09:28.484Z,33.94
2019-06-08T10:11:59.590Z,33.25
2019-06-08T10:14:28.216Z,33.18
2019-06-08T10:17:00.734Z,32.30
2019-06-08T10:19:27.345Z,32.34
2019-06-08T10:21:56.905Z,31.59
2019-06-08T10:24:25.511Z,30.88
2019-06-08T10:26:55.160Z,30.98
2019-06-08T10:29:23.808Z,30.07
2019-06-08T10:31:52.482Z,27.62
2019-06-08T10:34:21.136Z,28.60
2019-06-08T10:36:49.813Z,29.12
2019-06-08T10:39:18.489Z,27.98
2019-06-08T10:41:48.871Z,28.79
2019-06-08T10:44:18.285Z,28.67
2019-06-08T10:46:48.194Z,30.36
2019-06-08T10:49:18.613Z,30.92
2019-06-08T10:51:48.790Z,30.75
2019-06-08T10:54:17.618Z,30.40
2019-06-08T10:56:48.419Z,30.25
2019-06-08T10:59:18.532Z,29.84
2019-06-08T11:01:46.742Z,29.06
2019-06-08T11:04:15.331Z,28.67
2019-06-08T11:06:43.876Z,28.98
2019-06-08T11:09:15.075Z,29.10
2019-06-08T11:11:42.893Z,30.01
2019-06-08T11:14:13.171Z,29.32
2019-06-08T11:16:41.914Z,29.42
2019-06-08T11:19:13.120Z,29.61
2019-06-08T11:21:40.896Z,30.12
2019-06-08T11:24:23.056Z,28.23
2019-06-08T11:26:40.425Z,29.84
2019-06-08T11:29:11.847Z,30.54
2019-06-08T11:31:39.572Z,29.27
2019-06-08T11:34:09.010Z,29.09
2019-06-08T11:36:39.387Z,29.13
2019-06-08T11:39:10.596Z,30.88
2019-06-08T11:41:38.765Z,30.88
2019-06-08T11:44:11.894Z,29.22
2019-06-08T11:46:38.356Z,29.13
2019-06-08T11:49:11.678Z,29.16
2019-06-08T11:51:38.458Z,29.87
2019-06-08T11:54:25.488Z,29.06
2019-06-08T11:56:40.286Z,30.13
2019-06-08T11:59:11.108Z,30.47
2019-06-08T12:01:38.272Z,29.33
2019-06-08T12:04:07.837Z,30.22
2019-06-08T12:06:37.691Z,31.12
2019-06-08T12:09:10.459Z,31.35
2019-06-08T12:11:38.257Z,31.93
2019-06-08T12:14:09.230Z,32.06
2019-06-08T12:16:37.878Z,32.27
2019-06-08T12:19:09.967Z,32.68
2019-06-08T12:21:36.987Z,32.68
2019-06-08T12:24:06.138Z,32.07
2019-06-08T12:26:34.843Z,32.49
2019-06-08T12:29:04.897Z,32.55
2019-06-08T12:31:33.597Z,33.98
2019-06-08T12:34:02.083Z,35.22
2019-06-08T12:36:30.846Z,35.43
2019-06-08T12:38:59.456Z,34.79
2019-06-08T12:41:31.138Z,34.13
2019-06-08T12:43:58.256Z,34.21
2019-06-08T12:46:27.991Z,34.82
2019-06-08T12:48:58.270Z,35.15
2019-06-08T12:51:28.334Z,35.71
2019-06-08T12:54:00.017Z,34.95
2019-06-08T12:56:28.797Z,34.48
2019-06-08T12:58:58.036Z,35.76
2019-06-08T13:01:28.233Z,36.38
2019-06-08T13:03:58.115Z,37.50
2019-06-08T13:06:28.307Z,36.53
2019-06-08T13:08:57.722Z,36.20
2019-06-08T13:11:28.243Z,36.13
2019-06-08T13:13:56.986Z,34.85
2019-06-08T13:16:28.227Z,35.09
2019-06-08T13:18:55.730Z,34.72
2019-06-08T13:21:33.748Z,34.20
2019-06-08T13:23:57.987Z,34.36
2019-06-08T13:26:28.439Z,33.73
2019-06-08T13:28:58.330Z,33.83
2019-06-08T13:31:28.867Z,33.73
2019-06-08T13:33:58.591Z,34.03
2019-06-08T13:36:29.536Z,34.75
2019-06-08T13:38:57.373Z,35.01
2019-06-08T13:41:29.524Z,34.21
2019-06-08T13:43:58.125Z,34.94
2019-06-08T13:46:28.162Z,35.89
2019-06-08T13:48:58.603Z,36.08
2019-06-08T13:51:28.191Z,34.69
2019-06-08T13:53:58.146Z,34.84
2019-06-08T13:56:28.418Z,34.68
2019-06-08T13:58:57.296Z,35.08
2019-06-08T14:01:30.437Z,35.36
2019-06-08T14:03:58.189Z,35.15
2019-06-08T14:06:28.413Z,34.25
2019-06-08T14:08:58.054Z,35.21
2019-06-08T14:11:28.065Z,34.58
2019-06-08T14:14:00.787Z,34.09
2019-06-08T14:16:29.674Z,34.08
2019-06-08T14:18:57.682Z,34.36
2019-06-08T14:21:36.652Z,34.55
2019-06-08T14:23:58.687Z,33.84
2019-06-08T14:26:26.895Z,33.41
2019-06-08T14:28:55.531Z,33.57
2019-06-08T14:31:25.655Z,33.93
2019-06-08T14:33:55.286Z,34.14
2019-06-08T14:36:24.800Z,34.61
2019-06-08T14:38:54.421Z,34.55
2019-06-08T14:41:22.913Z,34.48
2019-06-08T14:43:51.443Z,34.78
2019-06-08T14:46:22.583Z,34.71
2019-06-08T14:48:50.432Z,33.96
2019-06-08T14:51:20.287Z,33.59
2019-06-08T14:53:48.882Z,33.30
2019-06-08T14:56:18.524Z,33.21
2019-06-08T14:58:48.392Z,33.23
2019-06-08T15:01:19.455Z,33.73
2019-06-08T15:03:48.237Z,33.76
2019-06-08T15:06:17.886Z,33.39
2019-06-08T15:08:50.099Z,33.11
2019-06-08T15:11:17.953Z,33.23
2019-06-08T15:13:48.740Z,33.23
2019-06-08T15:16:18.211Z,33.64
2019-06-08T15:18:47.019Z,33.87
2019-06-08T15:21:20.496Z,34.20
2019-06-08T15:23:47.660Z,34.32
2019-06-08T15:26:23.950Z,34.00
2019-06-08T15:28:48.541Z,34.15
2019-06-08T15:31:18.313Z,34.05
2019-06-08T15:33:48.195Z,34.10
2019-06-08T15:36:20.282Z,34.90
2019-06-08T15:38:48.010Z,33.86
2019-06-08T15:41:20.787Z,34.18
2019-06-08T15:43:48.142Z,34.30
2019-06-08T15:46:18.349Z,34.66
2019-06-08T15:48:48.532Z,34.67
2019-06-08T15:51:17.220Z,35.48
2019-06-08T15:53:47.773Z,35.29
2019-06-08T15:56:18.557Z,35.67
2019-06-08T15:58:48.710Z,35.49
2019-06-08T16:01:17.033Z,36.03
2019-06-08T16:03:45.677Z,36.46
2019-06-08T16:06:14.348Z,36.41
2019-06-08T16:08:42.940Z,36.05
2019-06-08T16:11:11.483Z,35.74
2019-06-08T16:13:40.150Z,36.02
2019-06-08T16:16:08.852Z,36.28
2019-06-08T16:18:37.369Z,36.86
2019-06-08T16:21:06.114Z,37.15
2019-06-08T16:23:35.960Z,37.39
2019-06-08T16:26:04.799Z,37.66
2019-06-08T16:28:34.154Z,38.48
2019-06-08T16:31:05.493Z,38.63
2019-06-08T16:33:33.645Z,39.25
2019-06-08T16:36:02.283Z,39.37
2019-06-08T16:38:32.331Z,40.05
2019-06-08T16:41:01.134Z,40.56
2019-06-08T16:43:31.034Z,41.09
2019-06-08T16:45:59.873Z,41.45
2019-06-08T16:48:28.447Z,41.88
2019-06-08T16:50:57.109Z,42.60
2019-06-08T16:53:25.666Z,43.17
2019-06-08T16:55:54.186Z,43.92
2019-06-08T16:58:22.870Z,44.21
2019-06-08T17:00:51.433Z,44.36
2019-06-08T17:03:19.993Z,44.59
2019-06-08T17:05:48.664Z,44.58
2019-06-08T17:08:17.295Z,45.01
2019-06-08T17:10:45.865Z,44.69
2019-06-08T17:13:14.471Z,44.88
2019-06-08T17:15:43.096Z,44.91
2019-06-08T17:18:11.728Z,44.40
2019-06-08T17:20:40.708Z,44.40
2019-06-08T17:23:09.400Z,43.92
2019-06-08T17:25:38.798Z,44.25
2019-06-08T17:28:07.476Z,44.27
2019-06-08T17:30:37.528Z,44.69
2019-06-08T17:33:06.230Z,44.79
2019-06-08T17:35:35.574Z,44.41
2019-06-08T17:38:04.211Z,44.63
2019-06-08T17:40:34.197Z,44.17
2019-06-08T17:43:02.883Z,44.31
2019-06-08T17:45:32.298Z,44.65
2019-06-08T17:48:00.958Z,44.93
2019-06-08T17:50:29.653Z,44.94
2019-06-08T17:52:58.286Z,45.39
2019-06-08T17:55:26.888Z,45.47
2019-06-08T17:57:55.379Z,45.85
2019-06-08T18:00:24.783Z,45.91
2019-06-08T18:02:53.521Z,46.05
2019-06-08T18:05:22.087Z,46.37
2019-06-08T18:07:51.416Z,46.53
2019-06-08T18:10:20.087Z,46.62
2019-06-08T18:12:49.381Z,46.91
2019-06-08T18:15:18.088Z,47.00
2019-06-08T18:17:48.233Z,47.35
2019-06-08T18:20:17.864Z,47.34
2019-06-08T18:22:49.402Z,47.38
2019-06-08T18:25:17.566Z,47.36
2019-06-08T18:28:02.632Z,47.43
2019-06-08T18:30:19.095Z,47.79
2019-06-08T18:32:48.521Z,47.81
2019-06-08T18:35:18.299Z,48.08
2019-06-08T18:37:48.697Z,48.15
2019-06-08T18:40:18.099Z,48.23
2019-06-08T18:42:48.752Z,48.64
2019-06-08T18:45:18.702Z,48.86
2019-06-08T18:47:48.399Z,49.06
2019-06-08T18:50:17.438Z,49.31
2019-06-08T18:52:47.358Z,49.27
2019-06-08T18:55:18.313Z,49.56
2019-06-08T18:57:48.969Z,50.06
2019-06-08T19:00:17.694Z,50.10
2019-06-08T19:02:53.900Z,50.48
2019-06-08T19:05:20.767Z,50.84
2019-06-08T19:07:50.058Z,51.31
2019-06-08T19:10:20.646Z,51.80
2019-06-08T19:12:50.686Z,52.06
2019-06-08T19:15:22.341Z,52.47
2019-06-08T19:17:54.511Z,52.59
2019-06-08T19:20:21.186Z,53.07
2019-06-08T19:22:54.041Z,53.24
2019-06-08T19:25:20.217Z,53.66
2019-06-08T19:27:53.044Z,53.96
2019-06-08T19:30:20.310Z,54.22
2019-06-08T19:32:52.290Z,54.44
2019-06-08T19:35:19.748Z,54.56
2019-06-08T19:37:53.686Z,54.98
2019-06-08T19:40:18.710Z,55.04
2019-06-08T19:42:56.863Z,55.12
2019-06-08T19:45:18.194Z,55.43
2019-06-08T19:47:46.764Z,55.34
2019-06-08T19:50:17.255Z,55.70
2019-06-08T19:52:51.640Z,55.80
2019-06-08T19:55:18.086Z,56.68
2019-06-08T19:57:49.005Z,57.00
2019-06-08T20:00:18.115Z,57.19
2019-06-08T20:02:47.987Z,57.89
2019-06-08T20:05:17.527Z,58.26
2019-06-08T20:07:47.042Z,58.53
2019-06-08T20:10:17.601Z,58.70
2019-06-08T20:12:48.361Z,59.50
2019-06-08T20:15:18.401Z,60.01
2019-06-08T20:17:48.893Z,60.59
2019-06-08T20:20:18.347Z,60.76
2019-06-08T20:22:50.314Z,60.54
2019-06-08T20:25:17.925Z,61.40
2019-06-08T20:27:49.774Z,61.90
2019-06-08T20:30:17.458Z,61.92
2019-06-08T20:32:47.238Z,62.92
2019-06-08T20:35:17.440Z,63.25
2019-06-08T20:37:46.150Z,63.28
2019-06-08T20:40:14.897Z,63.34
2019-06-08T20:42:44.176Z,63.54
2019-06-08T20:45:13.238Z,63.67
2019-06-08T20:47:42.316Z,63.55
2019-06-08T20:50:11.066Z,63.78
2019-06-08T20:52:39.671Z,63.95
2019-06-08T20:55:09.033Z,63.97
2019-06-08T20:57:37.526Z,64.05
2019-06-08T21:00:11.599Z,64.15
2019-06-08T21:02:38.936Z,64.60
2019-06-08T21:05:07.937Z,65.30
2019-06-08T21:07:36.532Z,65.33
2019-06-08T21:10:08.339Z,65.71
2019-06-08T21:12:37.950Z,66.05
2019-06-08T21:15:07.721Z,66.91
2019-06-08T21:17:38.395Z,67.75
2019-06-08T21:20:08.477Z,68.36
2019-06-08T21:22:37.395Z,68.61
2019-06-08T21:25:08.606Z,69.51
2019-06-08T21:27:38.466Z,69.67
2019-06-08T21:30:19.900Z,69.49
2019-06-08T21:32:38.387Z,69.79
2019-06-08T21:35:07.664Z,71.00
2019-06-08T21:37:37.717Z,71.37
2019-06-08T21:40:08.515Z,70.55
2019-06-08T21:42:37.310Z,71.51
2019-06-08T21:45:09.730Z,71.77
2019-06-08T21:47:38.637Z,72.12
2019-06-08T21:50:08.138Z,72.14
2019-06-08T21:52:36.779Z,71.64
2019-06-08T21:55:07.344Z,72.78
2019-06-08T21:57:37.115Z,72.85
2019-06-08T22:00:27.103Z,73.04
2019-06-08T22:02:40.528Z,73.33
2019-06-08T22:05:09.263Z,73.43
2019-06-08T22:07:37.928Z,73.79
2019-06-08T22:10:07.686Z,73.80
2019-06-08T22:12:40.063Z,73.91
2019-06-08T22:15:07.522Z,74.06
2019-06-08T22:17:38.309Z,74.54
2019-06-08T22:20:10.569Z,74.85
2019-06-08T22:22:39.246Z,75.12
2019-06-08T22:25:08.406Z,75.28
2019-06-08T22:27:38.184Z,75.63
2019-06-08T22:30:11.612Z,76.14
2019-06-08T22:32:38.510Z,76.55
2019-06-08T22:35:08.118Z,76.50
2019-06-08T22:37:37.922Z,77.04
2019-06-08T22:40:08.190Z,77.08
2019-06-08T22:42:37.566Z,77.23
2019-06-08T22:45:08.348Z,77.18
2019-06-08T22:47:38.764Z,76.84
2019-06-08T22:50:08.028Z,76.71
2019-06-08T22:52:37.558Z,76.53
2019-06-08T22:55:10.730Z,76.57
2019-06-08T22:57:37.667Z,76.41
2019-06-08T23:00:16.768Z,76.38
2019-06-08T23:02:40.847Z,76.38
2019-06-08T23:05:09.693Z,76.18
2019-06-08T23:07:38.361Z,76.07
2019-06-08T23:10:10.330Z,75.97
2019-06-08T23:12:38.883Z,75.90
2019-06-08T23:15:10.638Z,75.63
2019-06-08T23:17:39.272Z,75.70
2019-06-08T23:20:08.880Z,75.92
2019-06-08T23:22:38.498Z,75.86
2019-06-08T23:25:09.242Z,75.62
2019-06-08T23:27:38.352Z,75.73
2019-06-08T23:30:10.189Z,76.07
2019-06-08T23:32:38.895Z,76.19
2019-06-08T23:35:09.390Z,75.67
2019-06-08T23:37:38.368Z,75.19
2019-06-08T23:40:07.668Z,75.33
2019-06-08T23:42:38.261Z,75.22
2019-06-08T23:45:10.136Z,75.06
2019-06-08T23:47:38.672Z,75.21
2019-06-08T23:50:11.276Z,75.29
2019-06-08T23:52:39.267Z,75.45
2019-06-08T23:55:11.722Z,75.37
2019-06-08T23:57:39.677Z,75.59
